createdAt,value
2023-02-19T00:00:17.278Z,11.47
2023-02-19T00:01:16.809Z,14.52
2023-02-19T00:02:14.161Z,10.96
2023-02-19T00:03:11.549Z,9.21
2023-02-19T00:04:16.498Z,16.98
2023-02-19T00:05:13.958Z,9.88
2023-02-19T00:06:11.473Z,9.00
2023-02-19T00:07:08.794Z,12.86
2023-02-19T00:08:06.118Z,13.53
2023-02-19T00:09:04.345Z,20.01
2023-02-19T00:10:01.681Z,18.75
2023-02-19T00:11:11.574Z,14.19
2023-02-19T00:12:09.080Z,28.30
2023-02-19T00:13:06.546Z,116.42
2023-02-19T00:14:04.356Z,64.58
2023-02-19T00:15:02.689Z,14.69
2023-02-19T00:16:05.246Z,9.31
2023-02-19T00:17:02.568Z,10.27
2023-02-19T00:17:59.959Z,8.50
2023-02-19T00:18:58.508Z,7.21
2023-02-19T00:19:56.928Z,7.96
2023-02-19T00:20:56.031Z,7.83
2023-02-19T00:21:53.996Z,6.99
2023-02-19T00:22:51.297Z,8.40
2023-02-19T00:23:50.190Z,7.72
2023-02-19T00:24:49.291Z,7.56
2023-02-19T00:25:46.739Z,6.41
2023-02-19T00:26:45.505Z,6.85
2023-02-19T00:27:42.869Z,7.47
2023-02-19T00:28:40.247Z,7.14
2023-02-19T00:29:37.562Z,7.77
2023-02-19T00:30:34.857Z,7.47
2023-02-19T00:31:33.749Z,7.09
2023-02-19T00:32:31.192Z,7.43
2023-02-19T00:33:29.636Z,7.24
2023-02-19T00:34:27.061Z,6.99
2023-02-19T00:35:24.369Z,7.21
2023-02-19T00:36:22.387Z,7.01
2023-02-19T00:37:19.719Z,6.80
2023-02-19T00:38:17.005Z,6.78
2023-02-19T00:39:16.188Z,6.84
2023-02-19T00:40:13.879Z,6.95
2023-02-19T00:41:21.657Z,6.74
2023-02-19T00:42:19.077Z,6.75
2023-02-19T00:43:16.418Z,6.62
2023-02-19T00:44:14.727Z,6.50
2023-02-19T00:45:12.013Z,6.76
2023-02-19T00:46:09.344Z,7.36
2023-02-19T00:47:06.708Z,6.94
2023-02-19T00:48:04.068Z,6.46
2023-02-19T00:49:01.819Z,6.83
2023-02-19T00:49:59.103Z,6.50
2023-02-19T00:50:56.422Z,6.46
2023-02-19T00:51:53.900Z,6.59
2023-02-19T00:52:51.199Z,7.08
2023-02-19T00:53:49.242Z,6.89
2023-02-19T00:54:46.585Z,7.31
2023-02-19T00:55:43.966Z,6.65
2023-02-19T00:56:41.285Z,7.61
2023-02-19T00:57:38.677Z,7.92
2023-02-19T00:58:36.533Z,7.74
2023-02-19T00:59:33.876Z,7.56
2023-02-19T01:00:31.172Z,10.28
2023-02-19T01:01:28.560Z,13.01
2023-02-19T01:02:26.910Z,8.02
2023-02-19T01:03:24.616Z,8.40
2023-02-19T01:04:22.070Z,37.67
2023-02-19T01:05:19.486Z,23.31
2023-02-19T01:06:17.920Z,16.61
2023-02-19T01:07:15.251Z,175.01
2023-02-19T01:08:12.547Z,9.86
2023-02-19T01:09:09.857Z,8.53
2023-02-19T01:10:07.615Z,8.36
2023-02-19T01:11:06.218Z,7.65
2023-02-19T01:12:04.402Z,7.38
2023-02-19T01:13:01.694Z,26.65
2023-02-19T01:14:00.342Z,87.35
2023-02-19T01:14:57.951Z,22.55
2023-02-19T01:16:03.159Z,14.26
2023-02-19T01:17:00.473Z,95.99
2023-02-19T01:17:57.829Z,38.75
2023-02-19T01:18:56.641Z,25.64
2023-02-19T01:19:54.036Z,84.19
2023-02-19T01:20:51.478Z,219.63
2023-02-19T01:21:48.855Z,74.40
2023-02-19T01:22:46.216Z,42.50
2023-02-19T01:23:44.313Z,23.92
2023-02-19T01:24:41.651Z,11.10
2023-02-19T01:25:39.837Z,9.88
2023-02-19T01:26:37.194Z,9.85
2023-02-19T01:27:34.474Z,7.56
2023-02-19T01:28:31.897Z,7.80
2023-02-19T01:29:29.239Z,8.56
2023-02-19T01:30:26.649Z,8.21
2023-02-19T01:31:25.499Z,7.22
2023-02-19T01:32:22.995Z,7.34
2023-02-19T01:33:20.443Z,7.10
2023-02-19T01:34:17.751Z,7.48
2023-02-19T01:35:15.073Z,7.46
2023-02-19T01:36:12.910Z,7.55
2023-02-19T01:37:12.123Z,7.53
2023-02-19T01:38:09.476Z,7.00
2023-02-19T01:39:07.122Z,7.37
2023-02-19T01:40:04.649Z,7.12
2023-02-19T01:41:03.503Z,7.49
2023-02-19T01:42:00.859Z,7.90
2023-02-19T01:42:58.305Z,7.61
2023-02-19T01:43:55.584Z,9.59
2023-02-19T01:45:11.400Z,8.48
2023-02-19T01:46:08.729Z,7.58
2023-02-19T01:47:06.169Z,8.01
2023-02-19T01:48:06.179Z,7.63
2023-02-19T01:49:09.568Z,76.45
2023-02-19T01:50:07.022Z,15.68
2023-02-19T01:51:11.314Z,31.51
2023-02-19T01:52:18.046Z,21.51
2023-02-19T01:53:18.811Z,118.21
2023-02-19T01:54:20.091Z,68.92
2023-02-19T01:55:17.597Z,105.29
2023-02-19T01:56:17.430Z,13.65
2023-02-19T01:57:21.897Z,70.55
2023-02-19T01:58:19.786Z,16.05
2023-02-19T01:59:18.830Z,18.42
2023-02-19T02:00:17.500Z,13.95
2023-02-19T02:01:15.098Z,22.24
2023-02-19T02:02:12.660Z,50.33
2023-02-19T02:03:10.776Z,16.78
2023-02-19T02:04:11.135Z,113.08
2023-02-19T02:05:18.941Z,18.77
2023-02-19T02:06:22.598Z,116.14
2023-02-19T02:07:38.472Z,95.25
2023-02-19T02:08:54.692Z,20.63
2023-02-19T02:10:11.527Z,88.13
2023-02-19T02:11:09.449Z,154.32
2023-02-19T02:12:07.164Z,26.17
2023-02-19T02:13:04.678Z,61.61
2023-02-19T02:14:03.286Z,107.07
2023-02-19T02:15:00.744Z,45.19
2023-02-19T02:15:58.128Z,36.16
2023-02-19T02:17:16.439Z,52.22
2023-02-19T02:18:16.501Z,28.16
2023-02-19T02:19:28.119Z,55.59
2023-02-19T02:20:40.447Z,175.55
2023-02-19T02:21:52.920Z,36.13
2023-02-19T02:23:08.842Z,20.67
2023-02-19T02:24:32.431Z,13.76
2023-02-19T02:25:48.328Z,142.50
2023-02-19T02:27:04.258Z,37.73
2023-02-19T02:28:16.699Z,9.34
2023-02-19T02:29:26.041Z,8.00
2023-02-19T02:30:33.329Z,7.95
2023-02-19T02:31:36.104Z,9.08
2023-02-19T02:32:39.982Z,8.61
2023-02-19T02:33:43.732Z,8.51
2023-02-19T02:34:57.695Z,8.68
2023-02-19T02:36:07.298Z,13.65
2023-02-19T02:37:05.577Z,11.20
2023-02-19T02:38:06.415Z,20.08
2023-02-19T02:39:07.581Z,12.04
2023-02-19T02:40:06.776Z,8.42
2023-02-19T02:41:05.402Z,8.97
2023-02-19T02:42:21.225Z,12.04
2023-02-19T02:43:18.601Z,14.00
2023-02-19T02:44:15.881Z,14.63
2023-02-19T02:45:37.784Z,14.73
2023-02-19T02:46:38.450Z,8.72
2023-02-19T02:47:45.083Z,52.52
2023-02-19T02:48:45.142Z,24.06
2023-02-19T02:50:02.482Z,8.51
2023-02-19T02:50:59.773Z,8.17
2023-02-19T02:51:58.755Z,8.55
2023-02-19T02:53:18.049Z,8.21
2023-02-19T02:54:44.897Z,11.44
2023-02-19T02:55:44.796Z,9.31
2023-02-19T02:56:44.114Z,9.34
2023-02-19T02:57:41.514Z,8.21
2023-02-19T02:58:39.194Z,8.21
2023-02-19T02:59:39.760Z,9.04
2023-02-19T03:00:57.997Z,8.76
2023-02-19T03:02:14.756Z,8.23
2023-02-19T03:03:14.233Z,7.80
2023-02-19T03:04:19.024Z,7.61
2023-02-19T03:05:38.809Z,8.19
2023-02-19T03:06:37.959Z,8.39
2023-02-19T03:07:52.544Z,8.36
2023-02-19T03:08:58.869Z,7.71
2023-02-19T03:09:58.976Z,7.45
2023-02-19T03:10:56.260Z,7.79
2023-02-19T03:12:15.184Z,8.62
2023-02-19T03:13:35.041Z,7.71
2023-02-19T03:14:56.491Z,8.42
2023-02-19T03:16:21.290Z,8.29
2023-02-19T03:17:53.817Z,7.79
2023-02-19T03:19:29.448Z,8.15
2023-02-19T03:20:27.379Z,7.51
2023-02-19T03:21:27.473Z,7.75
2023-02-19T03:22:29.130Z,8.35
2023-02-19T03:23:48.975Z,7.63
2023-02-19T03:25:10.788Z,7.48
2023-02-19T03:26:09.664Z,8.00
2023-02-19T03:27:09.916Z,7.94
2023-02-19T03:28:09.539Z,7.98
2023-02-19T03:29:23.874Z,7.75
2023-02-19T03:30:25.113Z,7.25
2023-02-19T03:31:25.661Z,7.85
2023-02-19T03:32:29.676Z,8.31
2023-02-19T03:33:29.944Z,7.89
2023-02-19T03:34:47.664Z,7.26
2023-02-19T03:35:47.596Z,7.35
2023-02-19T03:36:49.636Z,8.14
2023-02-19T03:37:49.844Z,13.13
2023-02-19T03:38:59.263Z,14.69
2023-02-19T03:39:57.622Z,16.46
2023-02-19T03:41:00.908Z,11.05
2023-02-19T03:42:16.749Z,8.27
2023-02-19T03:43:26.090Z,7.32
2023-02-19T03:44:40.879Z,7.21
2023-02-19T03:45:48.101Z,7.41
2023-02-19T03:46:55.297Z,7.57
2023-02-19T03:48:21.985Z,9.26
2023-02-19T03:49:47.834Z,8.14
2023-02-19T03:50:50.286Z,8.40
2023-02-19T03:51:55.738Z,7.24
2023-02-19T03:53:11.579Z,7.35
2023-02-19T03:54:18.413Z,6.93
2023-02-19T03:55:18.810Z,7.34
2023-02-19T03:56:21.035Z,7.86
2023-02-19T03:57:25.269Z,7.21
2023-02-19T03:58:28.855Z,27.28
2023-02-19T03:59:42.820Z,13.59
2023-02-19T04:00:49.079Z,7.63
2023-02-19T04:01:54.920Z,7.96
2023-02-19T04:02:52.247Z,8.04
2023-02-19T04:03:55.854Z,7.67
2023-02-19T04:04:59.244Z,8.08
2023-02-19T04:06:02.406Z,10.61
2023-02-19T04:06:59.849Z,7.22
2023-02-19T04:08:00.552Z,7.21
2023-02-19T04:09:03.469Z,7.51
2023-02-19T04:10:01.921Z,7.37
2023-02-19T04:11:00.277Z,7.49
2023-02-19T04:11:58.805Z,7.20
2023-02-19T04:13:01.488Z,10.37
2023-02-19T04:13:58.901Z,7.82
2023-02-19T04:15:05.917Z,7.34
2023-02-19T04:16:07.346Z,7.12
2023-02-19T04:17:11.006Z,7.03
2023-02-19T04:18:14.160Z,6.84
2023-02-19T04:19:19.245Z,7.13
2023-02-19T04:20:16.674Z,7.06
2023-02-19T04:21:14.818Z,7.51
2023-02-19T04:22:13.191Z,7.59
2023-02-19T04:23:11.571Z,7.87
2023-02-19T04:24:16.195Z,32.03
2023-02-19T04:25:13.595Z,11.45
2023-02-19T04:26:12.495Z,8.53
2023-02-19T04:27:10.267Z,7.92
2023-02-19T04:28:08.529Z,7.83
2023-02-19T04:29:06.119Z,7.77
2023-02-19T04:30:04.152Z,7.44
2023-02-19T04:31:01.786Z,6.99
2023-02-19T04:31:59.189Z,7.53
2023-02-19T04:32:56.580Z,8.17
2023-02-19T04:33:53.865Z,7.21
2023-02-19T04:34:53.369Z,7.74
2023-02-19T04:35:51.688Z,6.93
2023-02-19T04:36:49.068Z,7.69
2023-02-19T04:37:46.355Z,7.89
2023-02-19T04:38:43.744Z,6.93
2023-02-19T04:39:41.107Z,7.36
2023-02-19T04:40:38.390Z,7.60
2023-02-19T04:41:35.722Z,7.16
2023-02-19T04:42:33.035Z,7.27
2023-02-19T04:43:30.379Z,7.79
2023-02-19T04:44:27.793Z,7.69
2023-02-19T04:45:25.168Z,7.62
2023-02-19T04:46:22.617Z,9.49
2023-02-19T04:47:20.023Z,95.74
2023-02-19T04:48:17.459Z,160.94
2023-02-19T04:49:14.997Z,195.05
2023-02-19T04:50:12.622Z,25.46
2023-02-19T04:51:10.598Z,18.02
2023-02-19T04:52:08.185Z,48.10
2023-02-19T04:53:05.792Z,43.38
2023-02-19T04:54:03.277Z,35.92
2023-02-19T04:55:00.605Z,17.70
2023-02-19T04:55:58.008Z,30.69
2023-02-19T04:56:55.334Z,19.98
2023-02-19T04:57:52.701Z,11.78
2023-02-19T04:58:50.144Z,90.87
2023-02-19T04:59:47.535Z,54.40
2023-02-19T05:00:44.849Z,79.38
2023-02-19T05:01:42.222Z,24.73
2023-02-19T05:02:39.597Z,50.89
2023-02-19T05:03:37.550Z,52.73
2023-02-19T05:04:35.088Z,17.41
2023-02-19T05:05:32.459Z,29.90
2023-02-19T05:06:29.841Z,61.19
2023-02-19T05:07:27.151Z,24.54
2023-02-19T05:08:24.476Z,26.84
2023-02-19T05:09:21.890Z,110.46
2023-02-19T05:10:19.190Z,30.33
2023-02-19T05:11:16.552Z,16.91
2023-02-19T05:12:14.018Z,92.06
2023-02-19T05:13:11.445Z,50.22
2023-02-19T05:14:08.779Z,30.69
2023-02-19T05:15:06.174Z,29.23
2023-02-19T05:16:06.212Z,80.98
2023-02-19T05:17:03.605Z,45.06
2023-02-19T05:18:01.002Z,42.48
2023-02-19T05:18:58.415Z,61.43
2023-02-19T05:19:55.735Z,43.74
2023-02-19T05:20:53.084Z,35.47
2023-02-19T05:21:50.412Z,28.23
2023-02-19T05:22:47.692Z,19.96
2023-02-19T05:23:45.071Z,24.15
2023-02-19T05:24:42.503Z,30.25
2023-02-19T05:25:39.825Z,29.45
2023-02-19T05:26:37.196Z,21.34
2023-02-19T05:27:34.621Z,19.81
2023-02-19T05:28:31.954Z,35.26
2023-02-19T05:29:31.190Z,34.27
2023-02-19T05:30:28.569Z,18.54
2023-02-19T05:31:25.941Z,14.59
2023-02-19T05:32:23.303Z,13.25
2023-02-19T05:33:22.532Z,66.78
2023-02-19T05:34:19.894Z,41.99
2023-02-19T05:35:17.263Z,26.61
2023-02-19T05:36:14.644Z,20.88
2023-02-19T05:37:12.092Z,29.25
2023-02-19T05:38:10.176Z,15.17
2023-02-19T05:39:08.530Z,16.77
2023-02-19T05:40:06.137Z,19.88
2023-02-19T05:41:09.519Z,23.73
2023-02-19T05:42:07.176Z,18.93
2023-02-19T05:43:04.988Z,18.26
2023-02-19T05:44:02.305Z,16.50
2023-02-19T05:44:59.607Z,15.67
2023-02-19T05:45:58.522Z,16.31
2023-02-19T05:46:55.841Z,12.46
2023-02-19T05:47:53.217Z,12.09
2023-02-19T05:48:51.993Z,12.92
2023-02-19T05:49:49.309Z,15.34
2023-02-19T05:50:46.627Z,14.58
2023-02-19T05:51:43.933Z,98.53
2023-02-19T05:52:41.300Z,89.35
2023-02-19T05:53:38.698Z,71.52
2023-02-19T05:54:36.041Z,65.77
2023-02-19T05:55:36.758Z,65.61
2023-02-19T05:56:35.309Z,60.16
2023-02-19T05:57:32.812Z,24.63
2023-02-19T05:58:30.349Z,11.92
2023-02-19T05:59:27.879Z,10.96
2023-02-19T06:00:27.139Z,10.06
2023-02-19T06:01:26.120Z,10.18
2023-02-19T06:02:23.536Z,10.27
2023-02-19T06:03:21.610Z,9.94
2023-02-19T06:04:20.086Z,9.75
2023-02-19T06:05:17.432Z,10.01
2023-02-19T06:06:15.971Z,9.64
2023-02-19T06:07:13.244Z,9.64
2023-02-19T06:08:13.030Z,9.86
2023-02-19T06:09:10.694Z,9.63
2023-02-19T06:10:08.564Z,10.05
2023-02-19T06:11:05.874Z,9.91
2023-02-19T06:12:03.242Z,10.33
2023-02-19T06:13:00.569Z,10.78
2023-02-19T06:13:57.975Z,9.32
2023-02-19T06:14:55.338Z,10.18
2023-02-19T06:15:52.635Z,12.66
2023-02-19T06:16:49.968Z,11.41
2023-02-19T06:17:47.430Z,11.79
2023-02-19T06:18:45.098Z,11.76
2023-02-19T06:19:42.617Z,17.45
2023-02-19T06:20:39.938Z,17.43
2023-02-19T06:21:37.555Z,44.55
2023-02-19T06:22:34.890Z,255.97
2023-02-19T06:23:32.491Z,278.24
2023-02-19T06:24:30.535Z,419.46
2023-02-19T06:25:27.851Z,120.07
2023-02-19T06:26:25.430Z,199.02
2023-02-19T06:27:22.952Z,59.29
2023-02-19T06:28:20.253Z,69.71
2023-02-19T06:29:17.612Z,33.13
2023-02-19T06:30:14.963Z,23.73
2023-02-19T06:31:13.450Z,27.48
2023-02-19T06:32:11.058Z,34.32
2023-02-19T06:33:08.541Z,93.41
2023-02-19T06:34:06.335Z,225.73
2023-02-19T06:35:04.225Z,212.52
2023-02-19T06:36:03.346Z,218.76
2023-02-19T06:37:01.126Z,129.39
2023-02-19T06:37:58.424Z,39.18
2023-02-19T06:38:59.386Z,17.56
2023-02-19T06:39:57.028Z,55.15
2023-02-19T06:40:55.031Z,73.94
2023-02-19T06:41:55.576Z,160.06
2023-02-19T06:42:52.980Z,27.24
2023-02-19T06:43:50.406Z,18.11
2023-02-19T06:44:47.790Z,54.32
2023-02-19T06:45:45.554Z,85.41
2023-02-19T06:46:43.162Z,36.55
2023-02-19T06:47:40.600Z,13.83
2023-02-19T06:48:39.599Z,13.10
2023-02-19T06:49:38.877Z,11.86
2023-02-19T06:50:36.240Z,15.38
2023-02-19T06:51:33.617Z,19.30
2023-02-19T06:52:30.906Z,11.86
2023-02-19T06:53:28.270Z,11.94
2023-02-19T06:54:26.132Z,12.06
2023-02-19T06:55:23.421Z,11.82
2023-02-19T06:56:31.388Z,12.12
2023-02-19T06:57:28.671Z,11.45
2023-02-19T06:58:26.029Z,12.21
2023-02-19T06:59:23.393Z,14.63
2023-02-19T07:00:20.789Z,12.43
2023-02-19T07:01:18.291Z,11.46
2023-02-19T07:02:15.653Z,11.26
2023-02-19T07:03:12.936Z,10.87
2023-02-19T07:04:10.534Z,11.22
2023-02-19T07:05:07.949Z,10.70
2023-02-19T07:06:05.516Z,13.97
2023-02-19T07:07:03.041Z,15.43
2023-02-19T07:08:00.394Z,11.57
2023-02-19T07:08:58.822Z,16.38
2023-02-19T07:09:56.143Z,28.61
2023-02-19T07:10:57.561Z,14.40
2023-02-19T07:11:55.004Z,11.40
2023-02-19T07:12:52.305Z,12.14
2023-02-19T07:13:56.706Z,10.79
2023-02-19T07:14:56.774Z,11.63
2023-02-19T07:16:04.598Z,13.55
2023-02-19T07:17:01.974Z,14.06
2023-02-19T07:17:59.828Z,12.03
2023-02-19T07:18:58.385Z,11.24
2023-02-19T07:19:55.688Z,10.86
2023-02-19T07:20:53.124Z,10.90
2023-02-19T07:21:50.472Z,10.66
2023-02-19T07:22:47.827Z,10.79
2023-02-19T07:23:45.777Z,18.65
2023-02-19T07:24:43.154Z,16.01
2023-02-19T07:25:40.469Z,24.54
2023-02-19T07:26:38.727Z,15.07
2023-02-19T07:27:36.128Z,14.00
2023-02-19T07:28:33.500Z,14.78
2023-02-19T07:29:30.814Z,14.00
2023-02-19T07:30:28.310Z,13.28
2023-02-19T07:31:25.978Z,15.02
2023-02-19T07:32:23.465Z,17.02
2023-02-19T07:33:20.870Z,17.03
2023-02-19T07:34:18.198Z,13.21
2023-02-19T07:35:15.590Z,12.45
2023-02-19T07:36:14.168Z,11.84
2023-02-19T07:37:11.499Z,12.75
2023-02-19T07:38:08.805Z,13.22
2023-02-19T07:39:08.030Z,13.26
2023-02-19T07:40:06.764Z,11.62
2023-02-19T07:41:05.247Z,15.78
2023-02-19T07:42:02.570Z,13.29
2023-02-19T07:43:00.588Z,14.29
2023-02-19T07:43:58.711Z,12.83
2023-02-19T07:44:56.202Z,11.86
2023-02-19T07:45:53.641Z,14.00
2023-02-19T07:46:51.043Z,14.63
2023-02-19T07:47:48.358Z,11.93
2023-02-19T07:48:45.804Z,11.37
2023-02-19T07:49:43.135Z,11.75
2023-02-19T07:50:40.490Z,11.92
2023-02-19T07:51:39.931Z,11.95
2023-02-19T07:52:37.239Z,12.81
2023-02-19T07:53:35.374Z,12.03
2023-02-19T07:54:33.024Z,11.23
2023-02-19T07:55:31.963Z,11.91
2023-02-19T07:56:29.303Z,12.12
2023-02-19T07:57:28.306Z,11.99
2023-02-19T07:58:25.621Z,15.56
2023-02-19T07:59:23.177Z,14.77
2023-02-19T08:00:20.616Z,17.21
2023-02-19T08:01:19.605Z,16.78
2023-02-19T08:02:37.636Z,11.20
2023-02-19T08:03:35.638Z,11.54
2023-02-19T08:04:32.994Z,12.68
2023-02-19T08:05:34.920Z,11.71
2023-02-19T08:06:32.243Z,12.14
2023-02-19T08:07:33.653Z,13.50
2023-02-19T08:08:31.065Z,12.26
2023-02-19T08:09:28.356Z,11.31
2023-02-19T08:10:45.266Z,11.27
2023-02-19T08:12:01.068Z,12.13
2023-02-19T08:13:18.528Z,16.16
2023-02-19T08:14:15.908Z,20.67
2023-02-19T08:15:13.219Z,16.03
2023-02-19T08:16:20.104Z,12.71
2023-02-19T08:17:17.571Z,11.80
2023-02-19T08:18:16.508Z,12.15
2023-02-19T08:19:13.850Z,12.70
2023-02-19T08:20:11.292Z,15.05
2023-02-19T08:21:08.946Z,13.54
2023-02-19T08:22:06.530Z,13.75
2023-02-19T08:23:04.276Z,12.28
2023-02-19T08:24:01.601Z,12.36
2023-02-19T08:24:59.019Z,12.87
2023-02-19T08:26:00.817Z,12.63
2023-02-19T08:26:58.143Z,11.91
2023-02-19T08:27:55.499Z,22.49
2023-02-19T08:28:52.850Z,12.81
2023-02-19T08:29:50.157Z,12.15
2023-02-19T08:30:48.302Z,11.63
2023-02-19T08:31:45.772Z,11.23
2023-02-19T08:32:43.182Z,11.29
2023-02-19T08:33:40.899Z,11.66
2023-02-19T08:34:38.238Z,11.98
2023-02-19T08:35:36.665Z,10.80
2023-02-19T08:36:34.130Z,10.69
2023-02-19T08:37:31.432Z,10.91
2023-02-19T08:38:28.857Z,10.46
2023-02-19T08:39:26.268Z,10.53
2023-02-19T08:40:23.985Z,10.82
2023-02-19T08:41:21.746Z,10.31
2023-02-19T08:42:19.060Z,9.93
2023-02-19T08:43:17.367Z,10.04
2023-02-19T08:44:14.725Z,10.59
2023-02-19T08:45:12.111Z,9.88
2023-02-19T08:46:10.733Z,10.21
2023-02-19T08:47:08.186Z,10.16
2023-02-19T08:48:05.973Z,10.05
2023-02-19T08:49:03.315Z,10.56
2023-02-19T08:50:00.675Z,10.46
2023-02-19T08:50:59.382Z,9.79
2023-02-19T08:51:56.761Z,9.90
2023-02-19T08:52:54.437Z,9.48
2023-02-19T08:53:51.802Z,9.58
2023-02-19T08:54:49.185Z,9.97
2023-02-19T08:55:46.675Z,10.18
2023-02-19T08:56:44.008Z,10.15
2023-02-19T08:57:41.441Z,8.92
2023-02-19T08:58:39.416Z,9.40
2023-02-19T08:59:36.781Z,10.15
2023-02-19T09:00:34.161Z,9.80
2023-02-19T09:01:31.580Z,9.37
2023-02-19T09:02:29.261Z,9.25
2023-02-19T09:03:26.662Z,9.25
2023-02-19T09:04:24.040Z,9.10
2023-02-19T09:05:21.349Z,9.26
2023-02-19T09:06:22.350Z,9.42
2023-02-19T09:07:19.709Z,10.10
2023-02-19T09:08:19.462Z,9.38
2023-02-19T09:09:16.772Z,9.05
2023-02-19T09:10:14.544Z,8.98
2023-02-19T09:11:12.159Z,9.33
2023-02-19T09:12:11.410Z,8.76
2023-02-19T09:13:08.703Z,9.23
2023-02-19T09:14:07.618Z,9.00
2023-02-19T09:15:05.343Z,9.22
2023-02-19T09:16:03.918Z,9.48
2023-02-19T09:17:01.716Z,9.44
2023-02-19T09:17:59.493Z,8.94
2023-02-19T09:18:56.777Z,9.23
2023-02-19T09:19:54.213Z,8.93
2023-02-19T09:20:52.541Z,8.95
2023-02-19T09:21:49.880Z,8.77
2023-02-19T09:22:47.306Z,8.75
2023-02-19T09:23:44.697Z,8.79
2023-02-19T09:24:43.108Z,8.67
2023-02-19T09:25:40.479Z,8.00
2023-02-19T09:26:38.665Z,8.91
2023-02-19T09:27:36.138Z,9.00
2023-02-19T09:28:34.201Z,8.33
2023-02-19T09:29:31.512Z,8.44
2023-02-19T09:30:28.888Z,8.35
2023-02-19T09:31:26.415Z,8.44
2023-02-19T09:32:23.825Z,8.51
2023-02-19T09:33:21.168Z,8.82
2023-02-19T09:34:18.497Z,8.62
2023-02-19T09:35:15.857Z,8.83
2023-02-19T09:36:14.095Z,9.05
2023-02-19T09:37:11.419Z,8.81
2023-02-19T09:38:10.845Z,9.28
2023-02-19T09:39:10.367Z,9.12
2023-02-19T09:40:09.082Z,8.75
2023-02-19T09:41:08.589Z,8.54
2023-02-19T09:42:15.427Z,8.54
2023-02-19T09:43:18.699Z,8.45
2023-02-19T09:44:23.921Z,8.47
2023-02-19T09:45:26.255Z,8.66
2023-02-19T09:46:35.692Z,8.36
2023-02-19T09:47:35.105Z,8.05
2023-02-19T09:48:32.641Z,8.93
2023-02-19T09:49:35.918Z,8.50
2023-02-19T09:50:38.498Z,9.18
2023-02-19T09:51:38.052Z,8.69
2023-02-19T09:52:41.129Z,8.67
2023-02-19T09:53:44.112Z,8.86
2023-02-19T09:54:42.494Z,8.37
2023-02-19T09:55:42.847Z,8.74
2023-02-19T09:56:40.388Z,8.63
2023-02-19T09:57:37.962Z,8.87
2023-02-19T09:58:40.509Z,8.69
2023-02-19T09:59:44.941Z,8.49
2023-02-19T10:00:42.835Z,8.94
2023-02-19T10:01:41.419Z,8.25
2023-02-19T10:02:38.874Z,7.87
2023-02-19T10:03:41.321Z,8.31
2023-02-19T10:04:41.484Z,8.56
2023-02-19T10:05:40.133Z,8.36
2023-02-19T10:06:38.098Z,8.14
2023-02-19T10:07:39.618Z,7.75
2023-02-19T10:08:37.953Z,7.26
2023-02-19T10:09:36.319Z,7.40
2023-02-19T10:10:35.701Z,7.73
2023-02-19T10:11:33.330Z,7.16
2023-02-19T10:12:32.235Z,6.84
2023-02-19T10:13:34.092Z,7.28
2023-02-19T10:14:39.338Z,7.24
2023-02-19T10:15:46.004Z,6.93
2023-02-19T10:16:45.501Z,6.71
2023-02-19T10:17:42.810Z,6.90
2023-02-19T10:18:42.279Z,6.77
2023-02-19T10:19:39.668Z,6.25
2023-02-19T10:20:37.076Z,6.44
2023-02-19T10:21:34.407Z,7.12
2023-02-19T10:22:35.779Z,6.85
2023-02-19T10:23:34.009Z,6.47
2023-02-19T10:24:32.084Z,6.34
2023-02-19T10:25:31.045Z,6.33
2023-02-19T10:26:31.830Z,6.58
2023-02-19T10:27:31.144Z,6.61
2023-02-19T10:28:33.807Z,5.59
2023-02-19T10:29:31.138Z,5.73
2023-02-19T10:30:31.221Z,6.16
2023-02-19T10:31:31.554Z,5.84
2023-02-19T10:32:29.826Z,6.05
2023-02-19T10:33:27.693Z,5.33
2023-02-19T10:34:24.972Z,5.44
2023-02-19T10:35:22.264Z,5.35
2023-02-19T10:36:22.314Z,5.54
2023-02-19T10:37:19.842Z,6.16
2023-02-19T10:38:19.126Z,6.47
2023-02-19T10:39:36.465Z,6.39
2023-02-19T10:40:34.248Z,6.33
2023-02-19T10:41:31.648Z,5.30
2023-02-19T10:42:29.038Z,5.73
2023-02-19T10:43:33.991Z,6.55
2023-02-19T10:44:42.186Z,5.84
2023-02-19T10:45:47.930Z,5.93
2023-02-19T10:46:47.443Z,6.09
2023-02-19T10:47:46.878Z,5.49
2023-02-19T10:48:52.166Z,6.73
2023-02-19T10:49:51.610Z,5.97
2023-02-19T10:50:58.138Z,5.68
2023-02-19T10:51:56.824Z,8.80
2023-02-19T10:52:56.693Z,10.03
2023-02-19T10:54:03.953Z,7.57
2023-02-19T10:55:15.303Z,7.63
2023-02-19T10:56:22.352Z,6.25
2023-02-19T10:57:19.659Z,6.21
2023-02-19T10:58:25.622Z,5.44
2023-02-19T10:59:28.125Z,5.62
2023-02-19T11:00:27.505Z,18.09
2023-02-19T11:01:29.252Z,13.40
2023-02-19T11:02:27.698Z,11.16
2023-02-19T11:03:25.894Z,7.89
2023-02-19T11:04:24.412Z,11.93
2023-02-19T11:05:21.826Z,9.19
2023-02-19T11:06:26.975Z,6.70
2023-02-19T11:07:24.332Z,6.65
2023-02-19T11:08:23.717Z,13.08
2023-02-19T11:09:41.530Z,13.88
2023-02-19T11:10:42.235Z,11.61
2023-02-19T11:11:40.553Z,10.38
2023-02-19T11:12:37.973Z,21.76
2023-02-19T11:13:38.088Z,12.74
2023-02-19T11:14:35.732Z,8.46
2023-02-19T11:15:37.513Z,18.36
2023-02-19T11:16:40.424Z,27.38
2023-02-19T11:17:38.345Z,23.31
2023-02-19T11:18:36.363Z,13.39
2023-02-19T11:19:42.843Z,8.57
2023-02-19T11:20:54.389Z,8.85
2023-02-19T11:21:52.032Z,8.63
2023-02-19T11:22:49.925Z,17.68
2023-02-19T11:23:47.485Z,11.09
2023-02-19T11:24:48.731Z,10.28
2023-02-19T11:25:48.063Z,8.16
2023-02-19T11:26:45.516Z,7.08
2023-02-19T11:28:03.807Z,8.04
2023-02-19T11:29:11.571Z,13.07
2023-02-19T11:30:35.232Z,8.59
2023-02-19T11:31:35.351Z,6.01
2023-02-19T11:32:32.798Z,8.24
2023-02-19T11:33:30.218Z,10.01
2023-02-19T11:34:30.113Z,20.35
2023-02-19T11:35:27.424Z,10.08
2023-02-19T11:36:29.844Z,6.50
2023-02-19T11:37:27.589Z,6.50
2023-02-19T11:38:24.905Z,10.38
2023-02-19T11:39:29.088Z,7.01
2023-02-19T11:40:49.143Z,6.85
2023-02-19T11:41:55.385Z,11.96
2023-02-19T11:43:02.568Z,6.97
2023-02-19T11:44:18.213Z,12.35
2023-02-19T11:45:15.797Z,7.56
2023-02-19T11:46:22.134Z,5.81
2023-02-19T11:47:31.417Z,5.87
2023-02-19T11:48:39.610Z,6.03
2023-02-19T11:49:42.986Z,6.36
2023-02-19T11:50:52.702Z,5.97
2023-02-19T11:52:14.322Z,5.63
2023-02-19T11:53:25.934Z,6.11
2023-02-19T11:54:23.279Z,6.78
2023-02-19T11:55:35.667Z,6.50
2023-02-19T11:56:36.553Z,8.26
2023-02-19T11:57:48.527Z,7.00
2023-02-19T11:58:45.780Z,5.99
2023-02-19T11:59:59.672Z,5.55
2023-02-19T12:01:15.507Z,5.93
2023-02-19T12:02:28.293Z,6.03
2023-02-19T12:03:48.917Z,6.35
2023-02-19T12:04:46.195Z,6.45
2023-02-19T12:05:55.693Z,6.69
2023-02-19T12:07:11.251Z,6.62
2023-02-19T12:08:26.620Z,7.08
2023-02-19T12:09:34.807Z,6.95
2023-02-19T12:10:49.537Z,6.24
2023-02-19T12:12:15.082Z,5.93
2023-02-19T12:13:12.365Z,6.58
2023-02-19T12:14:28.125Z,6.73
2023-02-19T12:15:33.006Z,6.89
2023-02-19T12:16:33.112Z,6.44
2023-02-19T12:17:36.267Z,6.26
2023-02-19T12:18:45.692Z,6.32
2023-02-19T12:20:01.515Z,6.61
2023-02-19T12:21:23.706Z,6.35
2023-02-19T12:22:21.065Z,5.91
2023-02-19T12:23:33.408Z,6.39
2023-02-19T12:24:42.971Z,6.00
2023-02-19T12:25:46.476Z,6.47
2023-02-19T12:27:01.946Z,6.01
2023-02-19T12:28:10.458Z,6.32
2023-02-19T12:29:26.216Z,6.21
2023-02-19T12:30:26.484Z,6.32
2023-02-19T12:31:42.515Z,6.85
2023-02-19T12:32:39.889Z,6.66
2023-02-19T12:34:02.422Z,6.12
2023-02-19T12:34:59.801Z,6.67
2023-02-19T12:36:17.452Z,6.40
2023-02-19T12:37:14.790Z,6.31
2023-02-19T12:38:21.930Z,6.24
2023-02-19T12:39:22.831Z,6.02
2023-02-19T12:40:34.683Z,17.48
2023-02-19T12:41:43.128Z,12.65
2023-02-19T12:43:05.338Z,6.48
2023-02-19T12:44:12.672Z,5.82
2023-02-19T12:45:22.459Z,5.88
2023-02-19T12:46:25.046Z,6.75
2023-02-19T12:47:26.158Z,6.37
2023-02-19T12:48:43.112Z,6.40
2023-02-19T12:49:47.085Z,5.99
2023-02-19T12:50:47.654Z,6.26
2023-02-19T12:51:44.945Z,6.74
2023-02-19T12:52:46.318Z,6.98
2023-02-19T12:53:58.633Z,6.26
2023-02-19T12:55:01.223Z,5.77
2023-02-19T12:56:01.053Z,5.90
2023-02-19T12:57:09.025Z,5.93
2023-02-19T12:58:13.877Z,6.46
2023-02-19T12:59:20.329Z,6.26
2023-02-19T13:00:21.092Z,6.08
2023-02-19T13:01:24.126Z,6.81
2023-02-19T13:02:29.217Z,6.34
2023-02-19T13:03:35.155Z,5.51
2023-02-19T13:04:41.394Z,5.97
2023-02-19T13:05:50.781Z,5.80
2023-02-19T13:06:58.916Z,5.91
2023-02-19T13:08:05.275Z,5.71
2023-02-19T13:09:09.886Z,6.16
2023-02-19T13:10:27.537Z,5.75
2023-02-19T13:11:39.656Z,6.06
2023-02-19T13:12:40.400Z,6.22
2023-02-19T13:13:43.490Z,6.06
2023-02-19T13:14:44.594Z,5.84
2023-02-19T13:15:44.878Z,6.07
2023-02-19T13:16:45.887Z,5.89
2023-02-19T13:17:51.429Z,6.37
2023-02-19T13:18:52.505Z,6.10
2023-02-19T13:19:53.828Z,6.04